createdAt,value
2016-05-10T00:00:18.455Z,44.34
2016-05-10T00:01:18.504Z,43.95
2016-05-10T00:02:18.460Z,44.14
2016-05-10T00:03:19.775Z,44.34
2016-05-10T00:04:18.419Z,44.14
2016-05-10T00:05:18.468Z,44.14
2016-05-10T00:06:18.330Z,44.43
2016-05-10T00:07:18.177Z,44.53
2016-05-10T00:08:18.382Z,44.62
2016-05-10T00:09:18.338Z,44.62
2016-05-10T00:10:18.263Z,44.62
2016-05-10T00:11:18.204Z,44.43
2016-05-10T00:12:18.780Z,44.43
2016-05-10T00:13:18.433Z,44.43
2016-05-10T00:14:18.164Z,44.34
2016-05-10T00:15:18.349Z,44.43
2016-05-10T00:16:18.846Z,44.91
2016-05-10T00:17:18.419Z,44.62
2016-05-10T00:18:18.342Z,44.82
2016-05-10T00:19:18.453Z,44.62
2016-05-10T00:20:21.221Z,44.43
2016-05-10T00:21:18.347Z,44.62
2016-05-10T00:22:18.640Z,44.7
2016-05-10T00:23:18.304Z,44.43
2016-05-10T00:24:18.282Z,44.91
2016-05-10T00:25:18.289Z,44.89
2016-05-10T00:26:18.297Z,44.79
2016-05-10T00:27:18.303Z,44.79
2016-05-10T00:28:18.245Z,44.79
2016-05-10T00:29:18.875Z,44.6
2016-05-10T00:30:18.223Z,45.08
2016-05-10T00:31:18.790Z,44.89
2016-05-10T00:32:18.262Z,44.79
2016-05-10T00:33:17.985Z,44.99
2016-05-10T00:34:19.050Z,45.18
2016-05-10T00:35:18.601Z,45.28
2016-05-10T00:36:18.667Z,45.28
2016-05-10T00:37:18.154Z,45.37
2016-05-10T00:38:18.205Z,45.28
2016-05-10T00:39:18.035Z,44.89
2016-05-10T00:40:18.226Z,45.37
2016-05-10T00:41:18.010Z,45.18
2016-05-10T00:42:18.263Z,45.18
2016-05-10T00:43:18.016Z,45.28
2016-05-10T00:44:18.440Z,45.18
2016-05-10T00:45:17.881Z,45.66
2016-05-10T00:46:18.727Z,45.56
2016-05-10T00:47:18.543Z,45.56
2016-05-10T00:48:17.889Z,45.66
2016-05-10T00:49:17.829Z,45.56
2016-05-10T00:50:17.847Z,45.66
2016-05-10T00:51:18.053Z,45.66
2016-05-10T00:52:17.774Z,45.47
2016-05-10T00:53:18.184Z,45.56
2016-05-10T00:54:18.171Z,45.37
2016-05-10T00:55:17.721Z,45.37
2016-05-10T00:56:17.692Z,45.37
2016-05-10T00:57:17.695Z,45.47
2016-05-10T00:58:18.634Z,45.28
2016-05-10T00:59:17.528Z,45.47
2016-05-10T01:00:17.749Z,45.37
2016-05-10T01:01:18.205Z,45.47
2016-05-10T01:02:17.598Z,45.47
2016-05-10T01:03:17.664Z,45.47
2016-05-10T01:04:17.632Z,45.45
2016-05-10T01:05:17.651Z,45.85
2016-05-10T01:06:17.450Z,45.73
2016-05-10T01:07:17.515Z,45.85
2016-05-10T01:08:17.425Z,45.73
2016-05-10T01:09:17.505Z,45.76
2016-05-10T01:10:17.523Z,45.83
2016-05-10T01:11:17.417Z,45.85
2016-05-10T01:12:17.403Z,45.92
2016-05-10T01:13:17.875Z,45.76
2016-05-10T01:14:17.284Z,46.02
2016-05-10T01:15:17.787Z,45.92
2016-05-10T01:16:17.930Z,46.12
2016-05-10T01:17:17.292Z,46.04
2016-05-10T01:18:17.420Z,46.12
2016-05-10T01:19:17.657Z,45.92
2016-05-10T01:20:17.222Z,46.02
2016-05-10T01:21:17.210Z,46.02
2016-05-10T01:22:17.993Z,45.92
2016-05-10T01:23:17.168Z,45.83
2016-05-10T01:24:17.140Z,46.12
2016-05-10T01:25:17.143Z,46.12
2016-05-10T01:26:17.160Z,46.21
2016-05-10T01:27:17.148Z,46.12
2016-05-10T01:28:17.056Z,46.21
2016-05-10T01:29:17.371Z,46.31
2016-05-10T01:30:17.077Z,46.41
2016-05-10T01:31:16.876Z,46.21
2016-05-10T01:32:18.098Z,46.41
2016-05-10T01:33:17.007Z,46.41
2016-05-10T01:34:16.979Z,46.31
2016-05-10T01:35:17.231Z,46.41
2016-05-10T01:36:16.922Z,46.79
2016-05-10T01:37:17.440Z,47.08
2016-05-10T01:38:17.098Z,47.08
2016-05-10T01:39:17.273Z,46.98
2016-05-10T01:40:17.526Z,46.98
2016-05-10T01:41:17.123Z,46.98
2016-05-10T01:42:16.781Z,46.89
2016-05-10T01:43:16.784Z,46.89
2016-05-10T01:44:16.771Z,46.98
2016-05-10T01:45:16.727Z,46.89
2016-05-10T01:46:17.011Z,46.98
2016-05-10T01:47:16.702Z,46.89
2016-05-10T01:48:16.736Z,46.79
2016-05-10T01:49:17.160Z,46.79
2016-05-10T01:50:16.615Z,46.98
2016-05-10T01:51:16.774Z,46.98
2016-05-10T01:52:16.886Z,46.79
2016-05-10T01:53:16.530Z,46.79
2016-05-10T01:54:16.346Z,46.79
2016-05-10T01:55:16.519Z,46.69
2016-05-10T01:56:16.710Z,46.89
2016-05-10T01:57:16.587Z,46.98
2016-05-10T01:58:16.435Z,46.98
2016-05-10T01:59:16.765Z,46.98
2016-05-10T02:00:16.393Z,47.08
2016-05-10T02:01:16.457Z,46.89
2016-05-10T02:02:16.367Z,46.79
2016-05-10T02:03:16.337Z,46.79
2016-05-10T02:04:16.450Z,46.79
2016-05-10T02:05:16.406Z,47.17
2016-05-10T02:06:16.268Z,47.08
2016-05-10T02:07:17.224Z,47.08
2016-05-10T02:08:16.242Z,47.08
2016-05-10T02:09:16.431Z,46.98
2016-05-10T02:10:16.184Z,47.08
2016-05-10T02:11:16.172Z,46.89
2016-05-10T02:12:16.159Z,46.98
2016-05-10T02:13:16.631Z,46.98
2016-05-10T02:14:16.477Z,47.27
2016-05-10T02:15:16.948Z,47.27
2016-05-10T02:16:16.075Z,47.36
2016-05-10T02:17:16.063Z,47.17
2016-05-10T02:18:16.066Z,47.08
2016-05-10T02:19:16.022Z,47.27
2016-05-10T02:20:16.883Z,47.17
2016-05-10T02:21:16.183Z,47.25
2016-05-10T02:22:16.686Z,47.25
2016-05-10T02:23:16.266Z,47.15
2016-05-10T02:24:15.941Z,47.34
2016-05-10T02:25:15.882Z,47.25
2016-05-10T02:26:15.728Z,47.44
2016-05-10T02:27:15.840Z,47.27
2016-05-10T02:28:16.124Z,47.27
2016-05-10T02:29:15.846Z,47.15
2016-05-10T02:30:15.817Z,47.25
2016-05-10T02:31:16.007Z,47.15
2016-05-10T02:32:15.853Z,47.15
2016-05-10T02:33:16.168Z,47.53
2016-05-10T02:34:15.999Z,47.34
2016-05-10T02:35:15.706Z,47.44
2016-05-10T02:36:15.787Z,47.53
2016-05-10T02:37:15.648Z,47.72
2016-05-10T02:38:15.650Z,47.63
2016-05-10T02:39:15.622Z,47.53
2016-05-10T02:40:15.859Z,47.72
2016-05-10T02:41:15.581Z,47.63
2016-05-10T02:42:15.553Z,47.63
2016-05-10T02:43:15.555Z,47.82
2016-05-10T02:44:15.480Z,47.63
2016-05-10T02:45:15.544Z,47.63
2016-05-10T02:46:15.814Z,47.44
2016-05-10T02:47:15.644Z,47.63
2016-05-10T02:48:15.646Z,47.53
2016-05-10T02:49:15.447Z,47.82
2016-05-10T02:50:15.558Z,47.92
2016-05-10T02:51:15.373Z,47.82
2016-05-10T02:52:15.423Z,48.02
2016-05-10T02:53:15.347Z,47.82
2016-05-10T02:54:15.163Z,47.92
2016-05-10T02:55:15.588Z,48.02
2016-05-10T02:56:15.355Z,48.11
2016-05-10T02:57:15.265Z,47.92
2016-05-10T02:58:15.235Z,48.11
2016-05-10T02:59:16.035Z,47.92
2016-05-10T03:00:15.194Z,48.21
2016-05-10T03:01:15.228Z,48.02
2016-05-10T03:02:15.154Z,48.3
2016-05-10T03:03:15.171Z,48.21
2016-05-10T03:04:15.065Z,48.21
2016-05-10T03:05:15.270Z,48.02
2016-05-10T03:06:15.523Z,48.4
2016-05-10T03:07:15.057Z,48.11
2016-05-10T03:08:15.450Z,48.3
2016-05-10T03:09:15.047Z,48.02
2016-05-10T03:10:14.878Z,48.11
2016-05-10T03:11:15.067Z,48.4
2016-05-10T03:12:15.023Z,48.3
2016-05-10T03:13:15.011Z,48.49
2016-05-10T03:14:14.904Z,48.4
2016-05-10T03:15:14.891Z,48.4
2016-05-10T03:16:15.081Z,48.4
2016-05-10T03:17:14.849Z,48.49
2016-05-10T03:18:14.853Z,48.49
2016-05-10T03:19:14.824Z,48.3
2016-05-10T03:20:15.029Z,48.3
2016-05-10T03:21:14.939Z,48.49
2016-05-10T03:22:15.363Z,48.49
2016-05-10T03:23:14.584Z,48.79
2016-05-10T03:24:14.758Z,48.69
2016-05-10T03:25:14.761Z,48.79
2016-05-10T03:26:14.733Z,48.69
2016-05-10T03:27:14.846Z,48.49
2016-05-10T03:28:14.941Z,48.59
2016-05-10T03:29:14.757Z,48.85
2016-05-10T03:30:14.604Z,48.88
2016-05-10T03:31:14.652Z,48.57
2016-05-10T03:32:14.562Z,48.79
2016-05-10T03:33:14.518Z,48.38
2016-05-10T03:34:14.535Z,48.38
2016-05-10T03:35:14.492Z,48.38
2016-05-10T03:36:14.463Z,48.76
2016-05-10T03:37:14.731Z,48.76
2016-05-10T03:38:14.532Z,48.47
2016-05-10T03:39:14.423Z,48.85
2016-05-10T03:40:14.473Z,48.76
2016-05-10T03:41:14.601Z,48.85
2016-05-10T03:42:14.526Z,49.15
2016-05-10T03:43:14.326Z,49.15
2016-05-10T03:44:14.328Z,49.15
2016-05-10T03:45:14.331Z,49.05
2016-05-10T03:46:14.131Z,49.15
2016-05-10T03:47:14.305Z,49.05
2016-05-10T03:48:14.245Z,49.05
2016-05-10T03:49:14.248Z,49.24
2016-05-10T03:50:14.204Z,49.05
2016-05-10T03:51:14.175Z,49.05
2016-05-10T03:52:14.162Z,49.15
2016-05-10T03:53:14.149Z,49.15
2016-05-10T03:54:14.152Z,49.05
2016-05-10T03:55:14.124Z,49.24
2016-05-10T03:56:14.127Z,49.05
2016-05-10T03:57:13.927Z,49.05
2016-05-10T03:58:14.054Z,49.15
2016-05-10T03:59:14.368Z,49.05
2016-05-10T04:00:13.980Z,49.15
2016-05-10T04:01:14.468Z,49.05
2016-05-10T04:02:13.986Z,49.15
2016-05-10T04:03:14.129Z,48.97
2016-05-10T04:04:13.976Z,48.95
2016-05-10T04:05:13.884Z,48.85
2016-05-10T04:06:13.856Z,48.95
2016-05-10T04:07:13.859Z,49.24
2016-05-10T04:08:13.846Z,49.24
2016-05-10T04:09:13.834Z,49.24
2016-05-10T04:10:13.789Z,49.33
2016-05-10T04:11:13.917Z,49.24
2016-05-10T04:12:13.763Z,49.24
2016-05-10T04:13:13.765Z,49.33
2016-05-10T04:14:13.972Z,49.05
2016-05-10T04:15:13.709Z,48.95
2016-05-10T04:16:13.305Z,48.95
2016-05-10T04:17:13.683Z,49.15
2016-05-10T04:18:13.576Z,49.15
2016-05-10T04:19:13.610Z,49.05
2016-05-10T04:20:13.597Z,49.33
2016-05-10T04:21:13.396Z,49.33
2016-05-10T04:22:13.743Z,49.52
2016-05-10T04:23:13.746Z,49.43
2016-05-10T04:24:13.561Z,49.33
2016-05-10T04:25:13.627Z,49.33
2016-05-10T04:26:13.473Z,49.33
2016-05-10T04:27:13.444Z,49.33
2016-05-10T04:28:13.462Z,49.33
2016-05-10T04:29:13.418Z,49.33
2016-05-10T04:30:13.405Z,49.33
2016-05-10T04:31:13.393Z,49.33
2016-05-10T04:32:13.380Z,49.17
2016-05-10T04:33:13.351Z,49.33
2016-05-10T04:34:13.306Z,49.17
2016-05-10T04:35:13.294Z,49.17
2016-05-10T04:36:13.343Z,49.17
2016-05-10T04:37:13.424Z,49.07
2016-05-10T04:38:13.224Z,48.97
2016-05-10T04:39:13.242Z,49.17
2016-05-10T04:40:13.245Z,49.17
2016-05-10T04:41:13.200Z,49.07
2016-05-10T04:42:13.172Z,49.17
2016-05-10T04:43:13.128Z,49.17
2016-05-10T04:44:13.037Z,49.26
2016-05-10T04:45:13.071Z,49.26
2016-05-10T04:46:13.089Z,49.26
2016-05-10T04:47:13.091Z,49.07
2016-05-10T04:48:26.847Z,49.07
2016-05-10T04:49:13.050Z,49.36
2016-05-10T04:50:12.975Z,49.17
2016-05-10T04:51:12.978Z,49.46
2016-05-10T04:52:12.933Z,49.36
2016-05-10T04:53:12.935Z,49.36
2016-05-10T04:54:12.907Z,49.36
2016-05-10T04:55:12.910Z,49.36
2016-05-10T04:56:12.866Z,49.36
2016-05-10T04:57:12.868Z,49.36
2016-05-10T04:58:12.887Z,49.36
2016-05-10T04:59:12.905Z,49.36
2016-05-10T05:00:12.783Z,49.36
2016-05-10T05:01:12.583Z,49.36
2016-05-10T05:02:12.772Z,49.36
2016-05-10T05:03:12.760Z,49.36
2016-05-10T05:04:12.590Z,49.36
2016-05-10T05:05:12.718Z,49.46
2016-05-10T05:06:12.721Z,49.36
2016-05-10T05:07:12.660Z,49.36
2016-05-10T05:08:12.632Z,49.46
2016-05-10T05:09:12.635Z,49.17
2016-05-10T05:10:12.622Z,49.19
2016-05-10T05:11:12.594Z,49.26
2016-05-10T05:12:12.628Z,49.17
2016-05-10T05:13:12.395Z,49.26
2016-05-10T05:14:12.509Z,49.36
2016-05-10T05:15:12.495Z,49.38
2016-05-10T05:16:12.450Z,49.29
2016-05-10T05:17:12.454Z,49.65
2016-05-10T05:18:12.269Z,49.29
2016-05-10T05:19:12.225Z,49.29
2016-05-10T05:20:12.383Z,49.29
2016-05-10T05:21:12.370Z,49.38
2016-05-10T05:22:12.451Z,49.48
2016-05-10T05:23:12.328Z,49.38
2016-05-10T05:24:12.644Z,49.38
2016-05-10T05:25:12.288Z,49.38
2016-05-10T05:26:12.259Z,49.38
2016-05-10T05:27:12.277Z,49.38
2016-05-10T05:28:12.467Z,49.38
2016-05-10T05:29:13.282Z,49.38
2016-05-10T05:30:12.316Z,49.29
2016-05-10T05:31:12.257Z,49.19
2016-05-10T05:32:12.149Z,49.19
2016-05-10T05:34:12.109Z,49.29
2016-05-10T05:35:12.111Z,49.1
2016-05-10T05:36:12.254Z,49.29
2016-05-10T05:37:12.038Z,49.19
2016-05-10T05:38:12.010Z,49.38
2016-05-10T05:39:12.012Z,49.38
2016-05-10T05:40:11.999Z,49.38
2016-05-10T05:41:11.987Z,49.38
2016-05-10T05:42:11.943Z,49.38
2016-05-10T05:43:11.961Z,49.29
2016-05-10T05:44:11.932Z,49.29
2016-05-10T05:45:11.982Z,49.67
2016-05-10T05:46:12.031Z,49.31
2016-05-10T05:47:11.878Z,49.38
2016-05-10T05:48:11.818Z,49.31
2016-05-10T05:49:11.867Z,49.67
2016-05-10T05:50:11.902Z,49.31
2016-05-10T05:51:11.811Z,49.6
2016-05-10T05:52:11.797Z,49.6
2016-05-10T05:53:11.753Z,49.51
2016-05-10T05:54:11.991Z,49.51
2016-05-10T05:55:11.696Z,49.69
2016-05-10T05:56:11.683Z,49.69
2016-05-10T05:57:11.780Z,49.51
2016-05-10T05:58:11.626Z,49.51
2016-05-10T05:59:11.629Z,49.51
2016-05-10T06:00:11.835Z,49.6
2016-05-10T06:01:11.697Z,49.69
2016-05-10T06:02:11.683Z,49.41
2016-05-10T06:03:11.530Z,49.51
2016-05-10T06:04:11.658Z,49.6
2016-05-10T06:05:11.583Z,49.31
2016-05-10T06:06:11.710Z,49.41
2016-05-10T06:07:11.463Z,49.41
2016-05-10T06:08:11.435Z,49.41
2016-05-10T06:09:12.078Z,49.41
2016-05-10T06:10:11.673Z,49.6
2016-05-10T06:11:11.364Z,49.51
2016-05-10T06:12:11.367Z,49.41
2016-05-10T06:13:11.323Z,49.51
2016-05-10T06:14:11.357Z,49.51
2016-05-10T06:15:11.298Z,49.33
2016-05-10T06:16:11.362Z,49.33
2016-05-10T06:17:11.239Z,49.41
2016-05-10T06:18:11.976Z,49.33
2016-05-10T06:19:11.386Z,49.41
2016-05-10T06:20:11.842Z,49.69
2016-05-10T06:21:11.329Z,49.43
2016-05-10T06:22:11.160Z,49.33
2016-05-10T06:23:11.303Z,49.53
2016-05-10T06:24:11.118Z,49.43
2016-05-10T06:25:11.636Z,49.43
2016-05-10T06:26:11.077Z,49.43
2016-05-10T06:27:11.157Z,49.33
2016-05-10T06:28:11.458Z,49.24
2016-05-10T06:29:11.366Z,49.43
2016-05-10T06:30:11.384Z,49.43
2016-05-10T06:31:11.043Z,49.43
2016-05-10T06:32:11.015Z,49.43
2016-05-10T06:33:11.157Z,49.43
2016-05-10T06:34:11.301Z,49.43
2016-05-10T06:35:10.929Z,49.55
2016-05-10T06:36:11.150Z,49.46
2016-05-10T06:37:10.918Z,49.27
2016-05-10T06:38:10.938Z,49.27
2016-05-10T06:39:10.862Z,49.17
2016-05-10T06:40:11.082Z,49.36
2016-05-10T06:41:10.773Z,49.36
2016-05-10T06:42:10.791Z,48.97
2016-05-10T06:43:10.763Z,49.36
2016-05-10T06:44:10.829Z,49.27
2016-05-10T06:45:11.128Z,49.55
2016-05-10T06:46:10.693Z,49.07
2016-05-10T06:47:11.212Z,49.17
2016-05-10T06:48:10.636Z,49.36
2016-05-10T06:49:10.748Z,49.46
2016-05-10T06:50:10.626Z,49.55
2016-05-10T06:51:10.581Z,49.19
2016-05-10T06:52:10.740Z,49.38
2016-05-10T06:53:10.556Z,49.36
2016-05-10T06:54:10.403Z,49.19
2016-05-10T06:55:10.530Z,49.1
2016-05-10T06:56:10.516Z,49.1
2016-05-10T06:57:10.738Z,49.1
2016-05-10T06:58:10.522Z,49.19
2016-05-10T06:59:10.431Z,49.19
2016-05-10T07:00:10.527Z,49.1
2016-05-10T07:01:10.405Z,48.9
2016-05-10T07:02:10.376Z,49.22
2016-05-10T07:03:10.489Z,48.93
2016-05-10T07:04:10.444Z,49.12
2016-05-10T07:05:10.307Z,49.02
2016-05-10T07:06:10.293Z,49.02
2016-05-10T07:07:10.937Z,48.54
2016-05-10T07:08:10.283Z,49.02
2016-05-10T07:09:10.348Z,48.54
2016-05-10T07:10:10.211Z,48.93
2016-05-10T07:11:10.916Z,48.93
2016-05-10T07:12:10.762Z,48.83
2016-05-10T07:13:10.031Z,48.93
2016-05-10T07:14:10.002Z,48.93
2016-05-10T07:15:10.130Z,49.02
2016-05-10T07:16:10.102Z,48.93
2016-05-10T07:17:10.089Z,48.93
2016-05-10T07:18:10.263Z,49.02
2016-05-10T07:19:10.219Z,48.83
2016-05-10T07:20:10.066Z,48.93
2016-05-10T07:21:10.037Z,48.93
2016-05-10T07:22:10.023Z,49.02
2016-05-10T07:23:10.105Z,49.02
2016-05-10T07:24:10.201Z,48.95
2016-05-10T07:25:09.954Z,49.05
2016-05-10T07:26:09.926Z,48.95
2016-05-10T07:27:09.912Z,48.95
2016-05-10T07:28:09.884Z,48.95
2016-05-10T07:29:10.386Z,49.05
2016-05-10T07:30:10.686Z,49.05
2016-05-10T07:31:09.860Z,48.95
2016-05-10T07:32:09.660Z,48.95
2016-05-10T07:33:10.241Z,48.86
2016-05-10T07:34:09.806Z,48.57
2016-05-10T07:35:09.763Z,48.95
2016-05-10T07:36:09.843Z,48.95
2016-05-10T07:37:10.033Z,48.76
2016-05-10T07:38:10.082Z,48.76
2016-05-10T07:39:09.710Z,48.95
2016-05-10T07:40:09.666Z,48.57
2016-05-10T07:41:09.668Z,48.59
2016-05-10T07:42:10.015Z,48.59
2016-05-10T07:43:09.612Z,48.88
2016-05-10T07:44:09.974Z,48.79
2016-05-10T07:45:09.415Z,48.59
2016-05-10T07:46:09.604Z,48.97
2016-05-10T07:47:09.513Z,48.59
2016-05-10T07:48:09.578Z,48.97
2016-05-10T07:49:09.487Z,48.79
2016-05-10T07:50:09.881Z,48.97
2016-05-10T07:51:09.290Z,48.88
2016-05-10T07:52:09.448Z,48.69
2016-05-10T07:53:09.420Z,48.79
2016-05-10T07:54:09.454Z,48.69
2016-05-10T07:55:09.692Z,48.79
2016-05-10T07:56:09.350Z,48.49
2016-05-10T07:57:09.353Z,48.61
2016-05-10T07:58:09.370Z,48.59
2016-05-10T07:59:10.514Z,48.71
2016-05-10T08:00:09.423Z,48.52
2016-05-10T08:01:09.269Z,48.61
2016-05-10T08:02:09.397Z,48.61
2016-05-10T08:03:09.338Z,48.33
2016-05-10T08:04:09.215Z,48.52
2016-05-10T08:05:09.202Z,48.52
2016-05-10T08:06:09.377Z,48.23
2016-05-10T08:07:09.770Z,48.52
2016-05-10T08:08:09.538Z,48.33
2016-05-10T08:09:09.150Z,48.33
2016-05-10T08:10:09.122Z,48.35
2016-05-10T08:11:09.093Z,48.42
2016-05-10T08:12:09.049Z,48.33
2016-05-10T08:13:09.052Z,48.44
2016-05-10T08:14:09.710Z,48.35
2016-05-10T08:15:09.276Z,48.35
2016-05-10T08:16:09.013Z,48.25
2016-05-10T08:17:09.000Z,48.25
2016-05-10T08:18:08.971Z,48.06
2016-05-10T08:19:08.943Z,48.16
2016-05-10T08:20:09.352Z,47.87
2016-05-10T08:21:08.948Z,48.06
2016-05-10T08:22:08.889Z,47.77
2016-05-10T08:23:08.876Z,47.67
2016-05-10T08:24:08.863Z,47.48
2016-05-10T08:25:08.834Z,47.77
2016-05-10T08:26:08.883Z,47.96
2016-05-10T08:27:08.855Z,48.16
2016-05-10T08:28:09.045Z,48.06
2016-05-10T08:29:08.861Z,47.96
2016-05-10T08:30:11.097Z,47.87
2016-05-10T08:31:08.803Z,47.77
2016-05-10T08:33:09.043Z,47.87
2016-05-10T08:34:08.672Z,47.8
2016-05-10T08:35:08.642Z,47.99
2016-05-10T08:36:08.691Z,47.7
2016-05-10T08:37:08.507Z,47.99
2016-05-10T08:38:08.603Z,47.7
2016-05-10T08:39:08.605Z,47.31
2016-05-10T08:40:08.624Z,47.6
2016-05-10T08:41:08.549Z,47.5
2016-05-10T08:42:08.692Z,47.5
2016-05-10T08:43:08.741Z,47.7
2016-05-10T08:44:09.760Z,47.7
2016-05-10T08:45:08.497Z,47.41
2016-05-10T08:46:08.468Z,47.41
2016-05-10T08:47:08.456Z,47.5
2016-05-10T08:48:08.568Z,47.63
2016-05-10T08:49:08.415Z,47.14
2016-05-10T08:50:08.432Z,47.33
2016-05-10T08:51:08.388Z,47.33
2016-05-10T08:52:08.376Z,47.05
2016-05-10T08:53:08.441Z,47.24
2016-05-10T08:54:08.834Z,47.14
2016-05-10T08:55:08.321Z,47.24
2016-05-10T08:56:08.277Z,47.24
2016-05-10T08:57:08.295Z,47.05
2016-05-10T08:58:08.236Z,47.24
2016-05-10T08:59:08.284Z,47.14
2016-05-10T09:00:08.209Z,47.14
2016-05-10T09:01:08.759Z,46.97
2016-05-10T09:02:08.558Z,47.16
2016-05-10T09:03:08.124Z,47.36
2016-05-10T09:04:08.110Z,47.26
2016-05-10T09:05:08.129Z,47.26
2016-05-10T09:06:09.054Z,47.45
2016-05-10T09:07:08.088Z,47.26
2016-05-10T09:08:08.013Z,47.26
2016-05-10T09:09:07.906Z,47.26
2016-05-10T09:10:08.096Z,47.26
2016-05-10T09:11:08.021Z,46.88
2016-05-10T09:12:08.617Z,46.61
2016-05-10T09:13:08.432Z,46.58
2016-05-10T09:14:07.966Z,46.61
2016-05-10T09:15:08.032Z,46.42
2016-05-10T09:16:07.909Z,46.39
2016-05-10T09:17:07.912Z,46.22
2016-05-10T09:18:07.930Z,46.32
2016-05-10T09:19:07.922Z,46.32
2016-05-10T09:20:07.936Z,46.32
2016-05-10T09:21:08.730Z,46.22
2016-05-10T09:22:08.430Z,46.22
2016-05-10T09:23:08.412Z,46.12
2016-05-10T09:24:08.651Z,46.32
2016-05-10T09:25:08.137Z,46.25
2016-05-10T09:26:08.046Z,45.93
2016-05-10T09:27:08.033Z,46.12
2016-05-10T09:28:08.456Z,46.15
2016-05-10T09:29:07.981Z,45.76
2016-05-10T09:30:07.990Z,45.76
2016-05-10T09:31:07.997Z,45.66
2016-05-10T09:32:08.006Z,45.57
2016-05-10T09:33:07.950Z,45.57
2016-05-10T09:34:08.409Z,45.57
2016-05-10T09:35:08.085Z,45.66
2016-05-10T09:36:07.948Z,45.66
2016-05-10T09:37:07.907Z,45.76
2016-05-10T09:38:07.818Z,45.76
2016-05-10T09:39:08.055Z,45.86
2016-05-10T09:40:07.965Z,45.95
2016-05-10T09:41:07.828Z,45.95
2016-05-10T09:42:07.832Z,45.95
2016-05-10T09:43:07.805Z,45.76
2016-05-10T09:44:08.010Z,45.76
2016-05-10T09:45:08.232Z,45.59
2016-05-10T09:46:07.750Z,45.4
2016-05-10T09:47:07.770Z,45.59
2016-05-10T09:48:07.726Z,45.68
2016-05-10T09:49:07.712Z,45.59
2016-05-10T09:50:08.137Z,45.4
2016-05-10T09:51:07.967Z,45.59
2016-05-10T09:52:07.751Z,45.49
2016-05-10T09:53:07.661Z,45.2
2016-05-10T09:54:07.601Z,44.91
2016-05-10T09:55:07.634Z,45.2
2016-05-10T09:56:07.559Z,44.91
2016-05-10T09:57:07.656Z,44.72
2016-05-10T09:58:07.705Z,44.93
2016-05-10T09:59:07.537Z,45.13
2016-05-10T10:00:07.805Z,44.74
2016-05-10T10:01:07.495Z,45.03
2016-05-10T10:02:07.513Z,44.74
2016-05-10T10:03:07.360Z,44.93
2016-05-10T10:04:08.144Z,44.84
2016-05-10T10:05:07.411Z,44.64
2016-05-10T10:06:07.274Z,44.45
2016-05-10T10:07:07.308Z,44.54
2016-05-10T10:08:07.373Z,44.54
2016-05-10T10:09:07.361Z,44.54
2016-05-10T10:10:07.316Z,44.06
2016-05-10T10:11:07.460Z,44.16
2016-05-10T10:12:07.353Z,44.16
2016-05-10T10:13:07.402Z,44.16
2016-05-10T10:14:07.265Z,43.99
2016-05-10T10:15:07.282Z,44.06
2016-05-10T10:16:07.254Z,44.47
2016-05-10T10:17:07.210Z,44.09
2016-05-10T10:18:07.228Z,43.79
2016-05-10T10:19:07.199Z,43.79
2016-05-10T10:20:07.155Z,43.79
2016-05-10T10:21:07.205Z,43.7
2016-05-10T10:22:07.114Z,43.7
2016-05-10T10:23:06.976Z,43.6
2016-05-10T10:24:07.166Z,43.5
2016-05-10T10:25:06.920Z,43.41
2016-05-10T10:26:07.062Z,43.41
2016-05-10T10:27:07.096Z,43.31
2016-05-10T10:28:07.021Z,43.31
2016-05-10T10:29:06.930Z,43.31
2016-05-10T10:30:07.026Z,43.12
2016-05-10T10:31:07.185Z,43.21
2016-05-10T10:32:06.953Z,43.02
2016-05-10T10:33:07.206Z,43.13
2016-05-10T10:34:06.974Z,43.02
2016-05-10T10:35:06.930Z,43.02
2016-05-10T10:36:06.917Z,42.92
2016-05-10T10:37:06.732Z,43.02
2016-05-10T10:38:06.891Z,42.92
2016-05-10T10:39:06.863Z,43.21
2016-05-10T10:40:06.849Z,43.02
2016-05-10T10:41:07.150Z,43.02
2016-05-10T10:42:06.824Z,43.04
2016-05-10T10:43:06.780Z,42.92
2016-05-10T10:44:06.814Z,42.94
2016-05-10T10:45:07.082Z,42.94
2016-05-10T10:46:06.835Z,42.85
2016-05-10T10:47:06.729Z,42.94
2016-05-10T10:48:06.731Z,42.75
2016-05-10T10:49:07.029Z,42.46
2016-05-10T10:50:06.674Z,42.75
2016-05-10T10:51:06.677Z,42.65
2016-05-10T10:52:06.648Z,42.94
2016-05-10T10:53:06.604Z,42.75
2016-05-10T10:54:06.637Z,42.55
2016-05-10T10:55:06.609Z,42.55
2016-05-10T10:56:06.595Z,42.65
2016-05-10T10:57:06.567Z,42.55
2016-05-10T10:58:06.508Z,42.46
2016-05-10T10:59:06.651Z,42.46
2016-05-10T11:00:07.264Z,42.17
2016-05-10T11:01:06.531Z,42.17
2016-05-10T11:02:06.862Z,42.26
2016-05-10T11:03:06.490Z,42.17
2016-05-10T11:04:06.446Z,41.97
2016-05-10T11:05:06.261Z,41.88
2016-05-10T11:06:06.420Z,41.88
2016-05-10T11:07:06.422Z,42.07
2016-05-10T11:08:06.847Z,41.49
2016-05-10T11:09:06.833Z,41.68
2016-05-10T11:10:06.383Z,41.78
2016-05-10T11:11:06.386Z,41.49
2016-05-10T11:12:07.077Z,41.2
2016-05-10T11:13:06.344Z,41.2
2016-05-10T11:14:06.332Z,41.31
2016-05-10T11:15:06.491Z,41.22
2016-05-10T11:16:06.415Z,41.41
2016-05-10T11:17:06.246Z,40.73
2016-05-10T11:18:06.265Z,41.22
2016-05-10T11:19:06.236Z,40.73
2016-05-10T11:20:06.738Z,41.02
2016-05-10T11:21:06.163Z,40.92
2016-05-10T11:22:06.323Z,40.92
2016-05-10T11:23:06.169Z,40.44
2016-05-10T11:24:06.124Z,40.64
2016-05-10T11:25:06.346Z,41.12
2016-05-10T11:26:06.084Z,40.64
2016-05-10T11:27:06.148Z,40.92
2016-05-10T11:28:06.073Z,40.92
2016-05-10T11:29:06.045Z,40.56
2016-05-10T11:30:05.922Z,40.95
2016-05-10T11:31:05.878Z,40.36
2016-05-10T11:32:06.036Z,40.08
2016-05-10T11:33:06.039Z,40.17
2016-05-10T11:34:05.963Z,40.08
2016-05-10T11:35:05.966Z,40.08
2016-05-10T11:36:06.141Z,40.08
2016-05-10T11:37:05.925Z,40.17
2016-05-10T11:38:05.911Z,40.26
2016-05-10T11:39:05.711Z,39.69
2016-05-10T11:40:06.058Z,39.69
2016-05-10T11:41:05.889Z,39.98
2016-05-10T11:42:05.830Z,40.09
2016-05-10T11:43:05.832Z,39.9
2016-05-10T11:44:05.787Z,40
2016-05-10T11:45:05.822Z,39.7
2016-05-10T11:46:06.044Z,39.61
2016-05-10T11:47:05.749Z,39.61
2016-05-10T11:48:06.533Z,39.8
2016-05-10T11:49:05.566Z,39.51
2016-05-10T11:50:05.710Z,39.41
2016-05-10T11:51:05.713Z,39.32
2016-05-10T11:52:05.793Z,39.22
2016-05-10T11:53:05.687Z,38.64
2016-05-10T11:54:05.690Z,38.83
2016-05-10T11:55:05.629Z,38.85
2016-05-10T11:56:05.617Z,38.85
2016-05-10T11:57:05.667Z,38.85
2016-05-10T11:58:05.590Z,38.56
2016-05-10T11:59:05.593Z,38.75
2016-05-10T12:00:05.862Z,38.56
2016-05-10T12:01:05.567Z,38.56
2016-05-10T12:02:05.570Z,38.27
2016-05-10T12:03:05.541Z,38.17
2016-05-10T12:04:05.513Z,37.49
2016-05-10T12:05:05.484Z,37.51
2016-05-10T12:06:06.487Z,37.12
2016-05-10T12:07:05.584Z,36.94
2016-05-10T12:08:05.571Z,36.75
2016-05-10T12:09:05.433Z,36.65
2016-05-10T12:10:05.420Z,36.75
2016-05-10T12:11:05.408Z,36.65
2016-05-10T12:12:05.738Z,36.75
2016-05-10T12:13:05.366Z,36.94
2016-05-10T12:14:05.306Z,37.34
2016-05-10T12:15:05.527Z,37.34
2016-05-10T12:16:05.624Z,37.14
2016-05-10T12:17:05.486Z,37.14
2016-05-10T12:18:05.410Z,37.52
2016-05-10T12:19:05.569Z,37.7
2016-05-10T12:20:05.260Z,37.52
2016-05-10T12:21:18.965Z,37.34
2016-05-10T12:22:05.296Z,37.6
2016-05-10T12:23:05.252Z,37.41
2016-05-10T12:24:05.207Z,37.51
2016-05-10T12:25:05.211Z,37.41
2016-05-10T12:26:05.213Z,37.41
2016-05-10T12:27:05.168Z,37.04
2016-05-10T12:28:05.141Z,36.94
2016-05-10T12:29:05.128Z,36.75
2016-05-10T12:30:05.209Z,36.75
2016-05-10T12:31:05.102Z,36.55
2016-05-10T12:32:05.088Z,36.36
2016-05-10T12:33:05.092Z,36.46
2016-05-10T12:34:05.079Z,36.65
2016-05-10T12:35:05.034Z,36.65
2016-05-10T12:36:05.006Z,36.65
2016-05-10T12:37:05.009Z,36.85
2016-05-10T12:38:05.120Z,36.94
2016-05-10T12:39:04.967Z,37.12
2016-05-10T12:40:04.782Z,37.51
2016-05-10T12:41:05.128Z,37.51
2016-05-10T12:42:04.913Z,37.8
2016-05-10T12:43:04.728Z,36.83
2016-05-10T12:44:04.714Z,36.93
2016-05-10T12:45:04.905Z,37.12
2016-05-10T12:46:04.766Z,37.22
2016-05-10T12:47:05.442Z,37.22
2016-05-10T12:48:04.819Z,37.12
2016-05-10T12:49:04.838Z,36.93
2016-05-10T12:50:04.793Z,37.2
2016-05-10T12:51:04.765Z,37.59
2016-05-10T12:52:04.783Z,37.3
2016-05-10T12:53:04.880Z,37.3
2016-05-10T12:54:04.757Z,37.49
2016-05-10T12:55:04.556Z,37.49
2016-05-10T12:56:04.763Z,37.1